Time;durP1;ratioP1;P1;durP2;ratioP2;P2;SDS_P1;SDS_P2;PMS_P1;PMS_P2;Temp;Humidity;BMP_temperature;BMP_pressure;BME280_temperature;BME280_humidity;BME280_pressure;Samples;Min_cycle;Max_cycle;Signal;HPM_P1;HPM_P2
2021/06/25 00:00:00;;;;;;;7.68;7.07;;;;;;;;;;4967787;28;20236;-84
2021/06/25 00:02:28;;;;;;;7.35;6.65;;;;;;;;;;4968422;28;20207;-85
2021/06/25 00:04:55;;;;;;;8.27;7.47;;;;;;;;;;4968254;28;20232;-84
2021/06/25 00:07:22;;;;;;;7.75;7.13;;;;;;;;;;4968942;28;20195;-85
2021/06/25 00:09:50;;;;;;;8.13;7.35;;;;;;;;;;4972008;28;20215;-85
2021/06/25 00:12:17;;;;;;;8.77;7.97;;;;;;;;;;4972056;28;20263;-85
2021/06/25 00:14:45;;;;;;;7.55;6.88;;;;;;;;;;4971290;28;20619;-85
2021/06/25 00:17:13;;;;;;;8.07;7.38;;;;;;;;;;4971746;28;20188;-85
2021/06/25 00:19:41;;;;;;;7.20;6.60;;;;;;;;;;4971198;28;20208;-85
2021/06/25 00:22:08;;;;;;;7.60;7.00;;;;;;;;;;4971163;28;20254;-85
2021/06/25 00:24:36;;;;;;;7.28;6.68;;;;;;;;;;4971508;28;20232;-84
2021/06/25 00:27:04;;;;;;;6.28;5.78;;;;;;;;;;4971699;28;20205;-84
2021/06/25 00:29:31;;;;;;;6.35;5.78;;;;;;;;;;4972289;28;20189;-84
2021/06/25 00:31:58;;;;;;;6.40;5.90;;;;;;;;;;4971910;28;20208;-84
2021/06/25 00:34:27;;;;;;;6.63;6.13;;;;;;;;;;4971387;28;20235;-85
2021/06/25 00:36:54;;;;;;;5.88;5.38;;;;;;;;;;4972060;28;20555;-84
2021/06/25 00:39:22;;;;;;;6.07;5.60;;;;;;;;;;4971438;28;20684;-85
2021/06/25 00:41:49;;;;;;;5.97;5.57;;;;;;;;;;4971470;28;20208;-84
2021/06/25 00:44:18;;;;;;;5.35;4.97;;;;;;;;;;4971509;28;20235;-84
2021/06/25 00:46:46;;;;;;;5.85;5.40;;;;;;;;;;4971186;28;20196;-84
2021/06/25 00:49:14;;;;;;;6.22;5.72;;;;;;;;;;4971394;28;20184;-85
2021/06/25 00:51:44;;;;;;;6.38;5.22;;;;;;;;;;4970810;28;20200;-86
2021/06/25 00:54:12;;;;;;;6.10;5.50;;;;;;;;;;4971074;28;20231;-85
2021/06/25 00:56:39;;;;;;;4.90;4.53;;;;;;;;;;4971429;28;20287;-85
2021/06/25 00:59:07;;;;;;;5.13;4.72;;;;;;;;;;4971193;28;20232;-85
2021/06/25 01:01:35;;;;;;;4.95;4.53;;;;;;;;;;4970518;28;20574;-85
2021/06/25 01:04:02;;;;;;;5.85;5.35;;;;;;;;;;4970986;28;20227;-85
2021/06/25 01:06:30;;;;;;;5.93;5.45;;;;;;;;;;4971272;28;20200;-85
2021/06/25 01:08:59;;;;;;;5.60;4.70;;;;;;;;;;4970614;28;20845;-85
2021/06/25 01:11:31;;;;;;;5.15;4.75;;;;;;;;;;4971016;28;20212;-85
2021/06/25 01:13:59;;;;;;;4.90;4.50;;;;;;;;;;4971220;28;20239;-85
2021/06/25 01:16:26;;;;;;;5.53;5.10;;;;;;;;;;4970947;28;20207;-85
2021/06/25 01:18:54;;;;;;;4.50;4.20;;;;;;;;;;4970733;28;20718;-85
2021/06/25 01:21:23;;;;;;;5.20;4.80;;;;;;;;;;4971518;28;20218;-85
2021/06/25 01:23:50;;;;;;;5.75;5.35;;;;;;;;;;4970563;28;20216;-85
2021/06/25 01:26:18;;;;;;;5.20;4.80;;;;;;;;;;4971348;28;20181;-85
2021/06/25 01:28:46;;;;;;;5.97;5.40;;;;;;;;;;4970458;28;20215;-85
2021/06/25 01:31:13;;;;;;;5.50;5.07;;;;;;;;;;4970557;28;20642;-85
2021/06/25 01:33:41;;;;;;;4.45;4.05;;;;;;;;;;4970555;28;20713;-85
2021/06/25 01:36:09;;;;;;;4.57;4.20;;;;;;;;;;4970293;28;20205;-84
2021/06/25 01:38:38;;;;;;;4.80;4.50;;;;;;;;;;4970610;28;20671;-85
2021/06/25 01:41:06;;;;;;;4.28;3.97;;;;;;;;;;4971681;28;20192;-85
2021/06/25 01:43:34;;;;;;;3.85;3.58;;;;;;;;;;4971899;28;20235;-85
2021/06/25 01:46:01;;;;;;;4.60;4.30;;;;;;;;;;4971073;28;20291;-85
2021/06/25 01:48:28;;;;;;;4.35;3.92;;;;;;;;;;4971198;28;20548;-85
2021/06/25 01:50:56;;;;;;;5.00;4.70;;;;;;;;;;4971626;28;20597;-85
2021/06/25 01:53:24;;;;;;;5.20;4.72;;;;;;;;;;4971055;28;20228;-85
2021/06/25 01:55:53;;;;;;;4.68;4.32;;;;;;;;;;4971038;28;20269;-85
2021/06/25 01:58:25;;;;;;;4.57;4.28;;;;;;;;;;4971289;28;20234;-85
2021/06/25 02:01:17;;;;;;;4.00;3.70;;;;;;;;;;4972193;28;20212;-85
2021/06/25 02:03:47;;;;;;;3.40;3.20;;;;;;;;;;4972613;28;20228;-85
2021/06/25 02:06:16;;;;;;;3.10;2.90;;;;;;;;;;4972733;28;20207;-85
2021/06/25 02:08:44;;;;;;;4.28;3.97;;;;;;;;;;4973456;28;20211;-84
2021/06/25 02:11:14;;;;;;;3.95;3.60;;;;;;;;;;4973356;28;20212;-84
2021/06/25 02:13:43;;;;;;;3.38;3.17;;;;;;;;;;4973278;28;20320;-85
2021/06/25 02:16:10;;;;;;;3.88;3.67;;;;;;;;;;4973230;28;20200;-84
2021/06/25 02:18:37;;;;;;;3.35;3.15;;;;;;;;;;4973746;28;20208;-85
2021/06/25 02:21:06;;;;;;;2.65;2.50;;;;;;;;;;4972580;28;20208;-84
2021/06/25 02:23:34;;;;;;;2.28;2.17;;;;;;;;;;4971934;28;20311;-84
2021/06/25 02:26:01;;;;;;;2.67;2.47;;;;;;;;;;4971885;28;20211;-85
2021/06/25 02:28:31;;;;;;;2.78;2.58;;;;;;;;;;4972631;28;20214;-84
2021/06/25 02:30:59;;;;;;;2.63;2.42;;;;;;;;;;4971608;28;20208;-85
2021/06/25 02:33:26;;;;;;;1.92;1.83;;;;;;;;;;4972499;28;20209;-85
2021/06/25 02:35:54;;;;;;;1.85;1.75;;;;;;;;;;4972577;28;20209;-85
2021/06/25 02:38:21;;;;;;;2.05;1.95;;;;;;;;;;4972245;28;20204;-85
2021/06/25 02:40:49;;;;;;;2.03;1.92;;;;;;;;;;4972347;28;20196;-85
2021/06/25 02:43:16;;;;;;;2.80;2.60;;;;;;;;;;4972598;28;20215;-86
2021/06/25 02:45:45;;;;;;;2.10;2.00;;;;;;;;;;4971738;28;20213;-86
2021/06/25 02:48:12;;;;;;;1.80;1.70;;;;;;;;;;4971935;28;20215;-86
2021/06/25 02:50:40;;;;;;;2.05;1.95;;;;;;;;;;4971859;28;20589;-86
2021/06/25 02:53:07;;;;;;;2.45;2.25;;;;;;;;;;4971374;28;20211;-86
2021/06/25 02:55:35;;;;;;;2.53;2.35;;;;;;;;;;4972081;28;20732;-86
2021/06/25 02:58:02;;;;;;;3.15;2.95;;;;;;;;;;4971498;28;20232;-85
2021/06/25 03:00:30;;;;;;;2.80;2.60;;;;;;;;;;4971904;28;20573;-85
2021/06/25 03:02:58;;;;;;;3.03;2.83;;;;;;;;;;4970979;28;20246;-86
2021/06/25 03:05:26;;;;;;;2.95;2.75;;;;;;;;;;4969580;28;20231;-86
2021/06/25 03:07:53;;;;;;;1.85;1.75;;;;;;;;;;4970667;28;20227;-86
2021/06/25 03:10:21;;;;;;;1.60;1.50;;;;;;;;;;4970089;28;20196;-86
2021/06/25 03:12:48;;;;;;;1.60;1.60;;;;;;;;;;4968326;28;20204;-86
2021/06/25 03:15:16;;;;;;;1.60;1.50;;;;;;;;;;4968627;28;20593;-86
2021/06/25 03:17:43;;;;;;;2.08;1.98;;;;;;;;;;4968641;28;20408;-86
2021/06/25 03:20:14;;;;;;;1.33;1.33;;;;;;;;;;4968472;28;20215;-87
2021/06/25 03:22:43;;;;;;;1.98;1.85;;;;;;;;;;4968749;28;20230;-86
2021/06/25 03:25:11;;;;;;;2.15;2.03;;;;;;;;;;4966522;28;20224;-87
2021/06/25 03:27:40;;;;;;;1.55;1.45;;;;;;;;;;4967030;28;20204;-86
2021/06/25 03:30:10;;;;;;;1.35;1.35;;;;;;;;;;4968240;28;20199;-86
2021/06/25 03:32:46;;;;;;;1.90;1.80;;;;;;;;;;4965412;28;20200;-86
2021/06/25 03:35:15;;;;;;;1.60;1.50;;;;;;;;;;4967134;28;20228;-87
2021/06/25 03:37:43;;;;;;;1.65;1.55;;;;;;;;;;4967231;28;20211;-86
2021/06/25 03:40:13;;;;;;;1.45;1.40;;;;;;;;;;4967571;28;20675;-86
2021/06/25 03:42:41;;;;;;;1.60;1.50;;;;;;;;;;4968599;28;20185;-87
2021/06/25 03:45:11;;;;;;;2.38;2.10;;;;;;;;;;4970819;28;20311;-86
2021/06/25 03:47:39;;;;;;;2.20;2.00;;;;;;;;;;4971307;28;20189;-87
2021/06/25 03:50:08;;;;;;;1.90;1.80;;;;;;;;;;4971803;28;20219;-86
2021/06/25 03:52:37;;;;;;;1.83;1.73;;;;;;;;;;4971635;28;20212;-86
2021/06/25 03:55:06;;;;;;;1.95;1.85;;;;;;;;;;4972028;28;20233;-86
2021/06/25 03:57:34;;;;;;;1.85;1.75;;;;;;;;;;4971676;28;20207;-86
2021/06/25 04:00:01;;;;;;;2.00;1.90;;;;;;;;;;4971562;28;20781;-86
2021/06/25 04:02:29;;;;;;;2.40;2.20;;;;;;;;;;4971942;28;20212;-86
2021/06/25 04:04:56;;;;;;;1.73;1.63;;;;;;;;;;4971816;28;20346;-86
2021/06/25 04:07:26;;;;;;;2.03;1.58;;;;;;;;;;4972267;28;20192;-87
2021/06/25 04:09:55;;;;;;;1.70;1.60;;;;;;;;;;4971921;28;20212;-86
2021/06/25 04:12:23;;;;;;;2.17;2.08;;;;;;;;;;4971612;28;20212;-86
2021/06/25 04:14:50;;;;;;;2.00;1.90;;;;;;;;;;4970785;28;20225;-86
2021/06/25 04:17:17;;;;;;;1.88;1.77;;;;;;;;;;4971752;28;20192;-86
2021/06/25 04:19:45;;;;;;;2.53;2.33;;;;;;;;;;4971692;28;20532;-86
2021/06/25 04:22:12;;;;;;;1.70;1.60;;;;;;;;;;4971368;28;20188;-86
2021/06/25 04:24:40;;;;;;;1.70;1.60;;;;;;;;;;4971354;28;20220;-85
2021/06/25 04:27:09;;;;;;;1.23;1.23;;;;;;;;;;4971439;28;20185;-86
2021/06/25 04:29:37;;;;;;;2.42;1.95;;;;;;;;;;4971464;28;20208;-86
2021/06/25 04:32:06;;;;;;;3.00;2.80;;;;;;;;;;4971205;28;20693;-86
2021/06/25 04:34:33;;;;;;;3.15;2.95;;;;;;;;;;4970367;28;20232;-85
2021/06/25 04:37:00;;;;;;;3.15;2.95;;;;;;;;;;4970750;28;20584;-86
2021/06/25 04:39:28;;;;;;;2.70;2.50;;;;;;;;;;4970540;28;20211;-86
2021/06/25 04:41:55;;;;;;;3.65;3.35;;;;;;;;;;4970958;28;20212;-85
2021/06/25 04:44:24;;;;;;;4.75;4.13;;;;;;;;;;4970651;28;20733;-86
2021/06/25 04:46:51;;;;;;;3.30;2.83;;;;;;;;;;4971211;28;20208;-86
2021/06/25 04:49:19;;;;;;;2.45;2.30;;;;;;;;;;4971711;28;20208;-84
2021/06/25 04:51:47;;;;;;;2.97;2.78;;;;;;;;;;4971486;28;20612;-84
2021/06/25 04:54:15;;;;;;;3.78;3.47;;;;;;;;;;4970021;28;20228;-84
2021/06/25 04:56:42;;;;;;;4.45;4.15;;;;;;;;;;4970776;28;20213;-84
2021/06/25 04:59:09;;;;;;;5.10;4.70;;;;;;;;;;4970874;28;20228;-84
2021/06/25 05:01:38;;;;;;;5.70;5.30;;;;;;;;;;4971247;28;20189;-84
2021/06/25 05:04:06;;;;;;;6.22;5.65;;;;;;;;;;4971017;28;20311;-84
2021/06/25 05:06:33;;;;;;;6.72;6.22;;;;;;;;;;4970390;28;20189;-84
2021/06/25 05:09:01;;;;;;;7.07;6.47;;;;;;;;;;4971799;28;20209;-84
2021/06/25 05:11:28;;;;;;;5.85;5.35;;;;;;;;;;4971350;28;20228;-84
2021/06/25 05:13:55;;;;;;;5.97;5.50;;;;;;;;;;4970895;28;20228;-84
2021/06/25 05:16:23;;;;;;;5.95;5.45;;;;;;;;;;4971785;28;20232;-84
2021/06/25 05:18:51;;;;;;;4.82;4.53;;;;;;;;;;4993826;22;20247;-84
2021/06/25 05:21:19;;;;;;;5.18;4.68;;;;;;;;;;5073508;28;20292;-85
2021/06/25 05:23:46;;;;;;;4.50;4.10;;;;;;;;;;5074474;28;20181;-84
2021/06/25 05:26:14;;;;;;;4.97;4.57;;;;;;;;;;5073663;28;20577;-84
2021/06/25 05:28:41;;;;;;;4.25;3.95;;;;;;;;;;5074234;28;20235;-85
2021/06/25 05:31:09;;;;;;;5.70;5.28;;;;;;;;;;5074513;28;20199;-87
2021/06/25 05:33:36;;;;;;;6.43;5.80;;;;;;;;;;5073455;28;20217;-84
2021/06/25 05:36:06;;;;;;;8.32;7.57;;;;;;;;;;5074741;28;20201;-84
2021/06/25 05:38:34;;;;;;;7.28;6.70;;;;;;;;;;5073263;28;20204;-84
2021/06/25 05:41:01;;;;;;;7.15;6.32;;;;;;;;;;5072820;28;20201;-84
2021/06/25 05:43:28;;;;;;;7.15;6.47;;;;;;;;;;5073133;28;20212;-85
2021/06/25 05:45:56;;;;;;;6.72;6.03;;;;;;;;;;5072878;28;20203;-85
2021/06/25 05:48:23;;;;;;;6.13;5.63;;;;;;;;;;5072742;28;20201;-87
2021/06/25 05:50:50;;;;;;;5.40;4.90;;;;;;;;;;5072777;28;20554;-85
2021/06/25 05:53:19;;;;;;;5.05;4.65;;;;;;;;;;5072573;28;20197;-86
2021/06/25 05:55:47;;;;;;;3.30;3.08;;;;;;;;;;5072838;28;20217;-87
2021/06/25 05:58:14;;;;;;;6.18;5.57;;;;;;;;;;5072564;28;20212;-87
2021/06/25 06:00:42;;;;;;;8.73;7.93;;;;;;;;;;5072329;28;20255;-85
2021/06/25 06:03:09;;;;;;;6.78;6.18;;;;;;;;;;5072165;28;20219;-85
2021/06/25 06:05:37;;;;;;;9.18;8.18;;;;;;;;;;5072186;28;20293;-85
2021/06/25 06:08:05;;;;;;;9.18;8.38;;;;;;;;;;5071450;28;20573;-85
2021/06/25 06:10:35;;;;;;;8.85;8.15;;;;;;;;;;5072465;28;20225;-85
2021/06/25 06:13:02;;;;;;;11.27;10.27;;;;;;;;;;5073318;28;20212;-85
2021/06/25 06:15:30;;;;;;;11.45;10.35;;;;;;;;;;5073051;28;20212;-85
2021/06/25 06:18:00;;;;;;;9.55;8.75;;;;;;;;;;5072485;28;20288;-84
2021/06/25 06:20:28;;;;;;;8.68;7.88;;;;;;;;;;5071275;28;20287;-86
2021/06/25 06:31:23;;;;;;;10.52;9.60;;;;;;;;;;5070782;28;20204;-84
2021/06/25 06:33:55;;;;;;;7.00;6.40;;;;;;;;;;5070855;28;20210;-85
2021/06/25 06:36:26;;;;;;;10.85;9.85;;;;;;;;;;5070721;28;20241;-85
2021/06/25 06:38:54;;;;;;;12.85;11.57;;;;;;;;;;5070497;28;20278;-84
2021/06/25 06:41:23;;;;;;;12.43;11.18;;;;;;;;;;5070055;28;20201;-85
2021/06/25 06:43:51;;;;;;;10.23;9.32;;;;;;;;;;5070559;28;20212;-85
2021/06/25 06:46:18;;;;;;;8.35;7.75;;;;;;;;;;5070541;28;20572;-85
2021/06/25 06:48:47;;;;;;;8.93;8.13;;;;;;;;;;5070490;28;20221;-85
2021/06/25 06:51:15;;;;;;;8.52;7.82;;;;;;;;;;5070983;28;20616;-86
2021/06/25 06:53:44;;;;;;;8.23;7.53;;;;;;;;;;5070131;28;20209;-85
2021/06/25 06:56:12;;;;;;;11.27;10.18;;;;;;;;;;5070576;28;20237;-84
2021/06/25 06:58:41;;;;;;;11.93;10.77;;;;;;;;;;5071081;28;20225;-85
2021/06/25 07:01:10;;;;;;;14.82;13.43;;;;;;;;;;5071361;28;20204;-84
2021/06/25 07:03:37;;;;;;;13.02;11.75;;;;;;;;;;5071659;28;20200;-87
2021/06/25 07:06:06;;;;;;;14.25;13.00;;;;;;;;;;5071685;28;20586;-84
2021/06/25 07:08:33;;;;;;;13.02;11.82;;;;;;;;;;5071394;28;20201;-87
2021/06/25 07:11:02;;;;;;;14.65;13.40;;;;;;;;;;5071650;28;20503;-87
2021/06/25 07:13:30;;;;;;;11.98;10.95;;;;;;;;;;5070795;28;20207;-86
2021/06/25 07:15:59;;;;;;;12.90;11.70;;;;;;;;;;5070784;28;20236;-85
2021/06/25 07:18:27;;;;;;;14.23;12.38;;;;;;;;;;5071356;28;20185;-85
2021/06/25 07:20:54;;;;;;;13.98;12.48;;;;;;;;;;5050824;28;20575;-84
2021/06/25 07:23:22;;;;;;;14.30;12.90;;;;;;;;;;5051597;28;20197;-84
2021/06/25 07:25:49;;;;;;;15.38;12.10;;;;;;;;;;5051817;28;20580;-87
2021/06/25 07:28:17;;;;;;;14.55;13.23;;;;;;;;;;5051362;28;20209;-85
2021/06/25 07:30:45;;;;;;;11.60;10.60;;;;;;;;;;5050599;28;20208;-85
2021/06/25 07:33:14;;;;;;;14.20;12.90;;;;;;;;;;5050662;28;20194;-84
2021/06/25 07:35:42;;;;;;;14.38;13.13;;;;;;;;;;5051003;28;20231;-84
2021/06/25 07:38:09;;;;;;;14.63;13.32;;;;;;;;;;5050559;28;20280;-84
2021/06/25 07:40:37;;;;;;;11.95;10.75;;;;;;;;;;5050439;28;20229;-85
2021/06/25 07:43:04;;;;;;;13.07;11.88;;;;;;;;;;5050766;28;20205;-85
2021/06/25 07:45:32;;;;;;;13.20;11.95;;;;;;;;;;5051405;28;20632;-85
2021/06/25 07:47:59;;;;;;;14.30;13.02;;;;;;;;;;5051315;28;20265;-85
2021/06/25 07:50:28;;;;;;;14.73;13.25;;;;;;;;;;5051425;28;20281;-84
2021/06/25 07:52:56;;;;;;;13.07;11.75;;;;;;;;;;5051201;28;20236;-85
2021/06/25 07:55:23;;;;;;;14.85;13.55;;;;;;;;;;5052334;28;20293;-85
2021/06/25 07:57:50;;;;;;;13.90;12.70;;;;;;;;;;5051531;28;20236;-86
2021/06/25 08:00:18;;;;;;;14.45;13.05;;;;;;;;;;5050594;28;20221;-84
2021/06/25 08:02:46;;;;;;;9.07;8.27;;;;;;;;;;5051649;28;20204;-84
2021/06/25 08:05:14;;;;;;;13.93;12.52;;;;;;;;;;5051636;28;20204;-84
2021/06/25 08:07:43;;;;;;;13.88;12.57;;;;;;;;;;5051511;28;20206;-85
2021/06/25 08:10:11;;;;;;;13.38;12.18;;;;;;;;;;5051766;28;20236;-85
2021/06/25 08:12:38;;;;;;;13.65;12.45;;;;;;;;;;5051034;28;20559;-85
2021/06/25 08:15:08;;;;;;;14.88;13.40;;;;;;;;;;5051121;28;20186;-85
2021/06/25 08:17:35;;;;;;;14.10;12.60;;;;;;;;;;5051665;28;20312;-88
2021/06/25 08:20:03;;;;;;;15.50;14.10;;;;;;;;;;5064432;28;20236;-85
2021/06/25 08:22:30;;;;;;;14.95;13.65;;;;;;;;;;5071432;28;20196;-85
2021/06/25 08:24:59;;;;;;;13.85;12.65;;;;;;;;;;5072929;28;20217;-85
2021/06/25 08:27:27;;;;;;;13.00;11.88;;;;;;;;;;5073175;28;20410;-84
2021/06/25 08:29:55;;;;;;;14.77;13.38;;;;;;;;;;5072906;28;20290;-85
2021/06/25 08:32:23;;;;;;;14.15;12.75;;;;;;;;;;5075494;28;20208;-85
2021/06/25 08:34:50;;;;;;;14.63;11.77;;;;;;;;;;5074932;28;20197;-85
2021/06/25 08:37:18;;;;;;;14.57;13.07;;;;;;;;;;5074995;28;20225;-85
2021/06/25 08:39:45;;;;;;;11.55;10.65;;;;;;;;;;5074220;28;20694;-86
2021/06/25 08:42:15;;;;;;;11.27;10.18;;;;;;;;;;5074816;28;20192;-86
2021/06/25 08:44:43;;;;;;;12.18;10.95;;;;;;;;;;5075046;28;20199;-86
2021/06/25 08:47:10;;;;;;;12.10;10.82;;;;;;;;;;5075547;28;20197;-85
2021/06/25 08:49:41;;;;;;;13.07;11.43;;;;;;;;;;5075716;28;20223;-85
2021/06/25 08:52:09;;;;;;;12.63;11.55;;;;;;;;;;5075801;28;20197;-85
2021/06/25 08:54:36;;;;;;;12.10;10.88;;;;;;;;;;5074587;28;20603;-85
2021/06/25 08:57:07;;;;;;;11.63;10.65;;;;;;;;;;5075830;28;20232;-87
2021/06/25 08:59:36;;;;;;;10.13;9.30;;;;;;;;;;5074579;28;20220;-86
2021/06/25 09:02:04;;;;;;;9.50;8.63;;;;;;;;;;5075383;28;20205;-86
2021/06/25 09:04:34;;;;;;;8.25;7.53;;;;;;;;;;5073494;28;20299;-85
2021/06/25 09:07:02;;;;;;;11.48;10.35;;;;;;;;;;5073748;28;20275;-85
2021/06/25 09:09:44;;;;;;;10.98;9.95;;;;;;;;;;5072763;28;20216;-85
2021/06/25 09:12:15;;;;;;;10.68;9.75;;;;;;;;;;5072391;28;20190;-85
2021/06/25 09:15:04;;;;;;;9.55;8.73;;;;;;;;;;5073164;28;20198;-85
2021/06/25 09:17:32;;;;;;;6.88;6.30;;;;;;;;;;5072076;28;20244;-85
2021/06/25 09:20:01;;;;;;;9.85;8.95;;;;;;;;;;5072099;28;20237;-86
2021/06/25 09:22:29;;;;;;;12.75;10.98;;;;;;;;;;5072186;28;20674;-86
2021/06/25 09:25:08;;;;;;;9.05;8.35;;;;;;;;;;5072185;28;20189;-86
2021/06/25 09:27:36;;;;;;;9.18;8.30;;;;;;;;;;5071380;28;20215;-86
2021/06/25 09:30:10;;;;;;;9.25;8.32;;;;;;;;;;5071954;28;20728;-86
2021/06/25 09:32:40;;;;;;;10.23;9.23;;;;;;;;;;5072690;28;20173;-85
2021/06/25 09:35:16;;;;;;;10.07;9.13;;;;;;;;;;5072267;28;20302;-86
2021/06/25 09:37:45;;;;;;;9.35;8.48;;;;;;;;;;5071928;28;20217;-86
2021/06/25 09:40:15;;;;;;;7.43;6.75;;;;;;;;;;5071682;28;20664;-88
2021/06/25 09:42:44;;;;;;;7.75;7.07;;;;;;;;;;5071831;28;20223;-86
2021/06/25 09:45:15;;;;;;;7.82;7.20;;;;;;;;;;5071661;28;20209;-86
2021/06/25 09:47:46;;;;;;;9.18;8.32;;;;;;;;;;5068244;28;20270;-86
2021/06/25 09:50:20;;;;;;;11.13;10.15;;;;;;;;;;5071191;28;20312;-86
2021/06/25 09:52:58;;;;;;;9.65;8.65;;;;;;;;;;5070691;28;20560;-86
2021/06/25 09:55:48;;;;;;;8.35;7.65;;;;;;;;;;5073777;28;20209;-88
2021/06/25 10:01:47;;;;;;;6.43;5.93;;;;;;;;;;5072394;28;20197;-86
2021/06/25 10:04:14;;;;;;;9.38;8.52;;;;;;;;;;5071800;28;20201;-90
2021/06/25 10:06:42;;;;;;;9.27;8.38;;;;;;;;;;5071112;28;20697;-87
2021/06/25 10:09:09;;;;;;;8.55;7.75;;;;;;;;;;5071266;28;20244;-88
2021/06/25 10:11:37;;;;;;;7.32;6.72;;;;;;;;;;5070688;28;20197;-87
2021/06/25 10:14:06;;;;;;;9.45;8.55;;;;;;;;;;5070811;28;20181;-86
2021/06/25 10:16:34;;;;;;;10.82;9.82;;;;;;;;;;5071172;28;20259;-86
2021/06/25 10:19:02;;;;;;;11.00;10.02;;;;;;;;;;5070823;28;20319;-86
2021/06/25 10:21:31;;;;;;;9.23;8.35;;;;;;;;;;5070630;28;20200;-86
2021/06/25 10:24:00;;;;;;;7.20;6.50;;;;;;;;;;5070490;28;20753;-86
2021/06/25 10:26:29;;;;;;;9.38;8.57;;;;;;;;;;5071088;28;20188;-87
2021/06/25 10:28:57;;;;;;;8.57;7.88;;;;;;;;;;5070940;28;20316;-86
2021/06/25 10:31:26;;;;;;;5.47;5.07;;;;;;;;;;5070329;28;20193;-87
2021/06/25 10:33:57;;;;;;;11.23;10.20;;;;;;;;;;5070711;28;20567;-88
2021/06/25 10:36:30;;;;;;;9.80;8.90;;;;;;;;;;5070726;28;20185;-88
2021/06/25 10:39:06;;;;;;;10.73;9.68;;;;;;;;;;5070377;28;20228;-87
2021/06/25 10:41:49;;;;;;;8.82;7.93;;;;;;;;;;5070385;28;20185;-86
2021/06/25 10:44:35;;;;;;;6.88;6.28;;;;;;;;;;5070653;28;20560;-87
2021/06/25 10:47:17;;;;;;;9.27;7.60;;;;;;;;;;5070268;28;20200;-86
2021/06/25 10:50:22;;;;;;;5.68;5.25;;;;;;;;;;5070305;28;20221;-87
2021/06/25 10:53:18;;;;;;;5.97;5.47;;;;;;;;;;5070446;28;20193;-87
2021/06/25 10:56:07;;;;;;;5.60;5.20;;;;;;;;;;5069512;28;20277;-89
2021/06/25 10:58:47;;;;;;;5.88;5.38;;;;;;;;;;5062922;28;20618;-88
2021/06/25 11:01:14;;;;;;;4.60;4.20;;;;;;;;;;5071317;28;20196;-86
2021/06/25 11:04:02;;;;;;;5.13;4.68;;;;;;;;;;5070669;28;20201;-87
2021/06/25 11:06:58;;;;;;;5.97;5.47;;;;;;;;;;5070593;28;20268;-87
2021/06/25 11:09:28;;;;;;;8.57;7.75;;;;;;;;;;5070502;28;20221;-86
2021/06/25 11:12:20;;;;;;;6.57;6.07;;;;;;;;;;5078195;28;20657;-87
2021/06/25 11:14:50;;;;;;;7.25;6.65;;;;;;;;;;5090831;28;20192;-87
2021/06/25 11:17:52;;;;;;;7.68;6.32;;;;;;;;;;5090433;28;20181;-86
2021/06/25 11:20:29;;;;;;;7.95;7.30;;;;;;;;;;5090266;28;20271;-87
2021/06/25 11:23:06;;;;;;;7.47;6.88;;;;;;;;;;5090548;28;20185;-87
2021/06/25 11:25:47;;;;;;;6.85;6.25;;;;;;;;;;5089965;22;20256;-87
2021/06/25 11:28:36;;;;;;;4.80;4.40;;;;;;;;;;5069621;28;20220;-87
2021/06/25 11:31:42;;;;;;;6.60;6.00;;;;;;;;;;5082708;28;20320;-89
2021/06/25 11:34:12;;;;;;;4.72;4.43;;;;;;;;;;5069740;28;20218;-88
2021/06/25 11:36:52;;;;;;;5.97;4.28;;;;;;;;;;5069573;28;20252;-85
2021/06/25 11:39:33;;;;;;;6.57;6.03;;;;;;;;;;5080996;28;20310;-86
2021/06/25 11:42:05;;;;;;;6.53;5.95;;;;;;;;;;5089863;28;20259;-87
2021/06/25 11:44:35;;;;;;;7.78;7.05;;;;;;;;;;5090062;28;20215;-86
2021/06/25 11:47:08;;;;;;;6.40;5.85;;;;;;;;;;5090012;28;20222;-85
2021/06/25 11:49:45;;;;;;;7.97;7.18;;;;;;;;;;5089965;28;20287;-86
2021/06/25 11:52:15;;;;;;;6.82;6.22;;;;;;;;;;5089745;28;20184;-86
2021/06/25 11:54:47;;;;;;;8.52;7.75;;;;;;;;;;5089666;28;20311;-86
2021/06/25 11:57:21;;;;;;;7.47;6.70;;;;;;;;;;5089683;28;20218;-86
2021/06/25 12:00:06;;;;;;;10.30;9.48;;;;;;;;;;5089512;28;20333;-86
2021/06/25 12:02:45;;;;;;;9.00;8.18;;;;;;;;;;5089623;28;20188;-86
2021/06/25 12:05:14;;;;;;;9.25;8.40;;;;;;;;;;5075087;28;20235;-86
2021/06/25 12:08:03;;;;;;;7.97;7.28;;;;;;;;;;5073159;28;20192;-86
2021/06/25 12:10:32;;;;;;;7.82;7.13;;;;;;;;;;5072909;28;20266;-85
2021/06/25 12:13:02;;;;;;;6.50;5.95;;;;;;;;;;5072931;28;20251;-86
2021/06/25 12:15:33;;;;;;;5.97;5.47;;;;;;;;;;5072986;28;20635;-87
2021/06/25 12:18:02;;;;;;;6.15;5.65;;;;;;;;;;5072867;28;20204;-85
2021/06/25 12:20:35;;;;;;;5.25;4.85;;;;;;;;;;5072942;28;20581;-86
2021/06/25 12:23:06;;;;;;;6.15;5.55;;;;;;;;;;5072379;28;20205;-86
2021/06/25 12:25:40;;;;;;;5.10;4.70;;;;;;;;;;5072301;28;20231;-86
2021/06/25 12:28:09;;;;;;;7.25;5.32;;;;;;;;;;5072754;28;20193;-86
2021/06/25 12:30:42;;;;;;;6.63;6.03;;;;;;;;;;5072498;28;20181;-86
2021/06/25 12:33:10;;;;;;;5.43;4.95;;;;;;;;;;5073075;28;20272;-87
2021/06/25 12:35:48;;;;;;;5.93;5.40;;;;;;;;;;5073046;28;20229;-87
2021/06/25 12:38:18;;;;;;;5.15;4.72;;;;;;;;;;5073070;28;20988;-87
2021/06/25 12:40:51;;;;;;;6.68;6.07;;;;;;;;;;5072510;28;20213;-87
2021/06/25 12:43:23;;;;;;;9.02;7.18;;;;;;;;;;5072670;28;20280;-87
2021/06/25 12:45:56;;;;;;;6.82;6.28;;;;;;;;;;5072514;28;20694;-86
2021/06/25 12:48:26;;;;;;;5.63;5.13;;;;;;;;;;5072182;28;20181;-86
2021/06/25 12:51:05;;;;;;;5.05;4.65;;;;;;;;;;5072276;28;20515;-87
2021/06/25 12:53:36;;;;;;;4.50;4.20;;;;;;;;;;5072670;28;20193;-86
2021/06/25 12:56:11;;;;;;;5.70;5.20;;;;;;;;;;5072538;28;20577;-87
2021/06/25 12:58:41;;;;;;;6.53;6.03;;;;;;;;;;5072306;28;20208;-87
2021/06/25 13:01:10;;;;;;;6.75;6.25;;;;;;;;;;5072163;28;20262;-86
2021/06/25 13:03:38;;;;;;;7.55;6.85;;;;;;;;;;5072227;28;20189;-86
2021/06/25 13:06:27;;;;;;;6.93;6.32;;;;;;;;;;5072154;28;20304;-86
2021/06/25 13:08:55;;;;;;;6.80;6.30;;;;;;;;;;5071614;28;20212;-87
2021/06/25 13:11:28;;;;;;;6.63;6.13;;;;;;;;;;5072352;28;20589;-87
2021/06/25 13:13:56;;;;;;;6.93;6.35;;;;;;;;;;5071475;28;20232;-86
2021/06/25 13:16:26;;;;;;;6.00;5.40;;;;;;;;;;5071125;28;20303;-87
2021/06/25 13:19:02;;;;;;;5.63;5.22;;;;;;;;;;5071893;28;20289;-86
2021/06/25 13:22:07;;;;;;;4.82;4.43;;;;;;;;;;5071458;28;20234;-86
2021/06/25 13:25:08;;;;;;;5.00;4.60;;;;;;;;;;5071879;28;20189;-87
2021/06/25 13:28:10;;;;;;;5.95;5.47;;;;;;;;;;5030989;28;20215;-87
2021/06/25 13:33:56;;;;;;;4.10;3.80;;;;;;;;;;5069866;28;20226;-87
2021/06/25 13:36:30;;;;;;;4.88;4.25;;;;;;;;;;5061300;28;20225;-87
2021/06/25 13:39:20;;;;;;;5.63;5.13;;;;;;;;;;5071673;28;20285;-87
2021/06/25 13:41:47;;;;;;;4.82;4.43;;;;;;;;;;5071640;28;20208;-88
2021/06/25 13:44:29;;;;;;;4.25;3.95;;;;;;;;;;5071076;28;20178;-88
2021/06/25 13:47:10;;;;;;;4.75;4.30;;;;;;;;;;5071633;28;20189;-89
2021/06/25 13:49:41;;;;;;;3.88;3.58;;;;;;;;;;5074068;28;20196;-88
2021/06/25 13:52:25;;;;;;;4.35;4.05;;;;;;;;;;5071219;28;20635;-87
2021/06/25 13:55:13;;;;;;;4.57;4.18;;;;;;;;;;5068353;28;20710;-87
2021/06/25 13:57:55;;;;;;;4.38;4.07;;;;;;;;;;5071548;28;20809;-87
2021/06/25 14:00:35;;;;;;;4.50;4.20;;;;;;;;;;5070797;28;20223;-88
2021/06/25 14:03:05;;;;;;;5.80;5.30;;;;;;;;;;5070998;28;20531;-87
2021/06/25 14:05:34;;;;;;;6.32;5.85;;;;;;;;;;5070875;28;20224;-86
2021/06/25 14:08:06;;;;;;;5.70;5.30;;;;;;;;;;5070452;28;20619;-88
2021/06/25 14:10:56;;;;;;;3.60;3.35;;;;;;;;;;5060744;28;20312;-87
2021/06/25 14:13:37;;;;;;;3.80;3.50;;;;;;;;;;5065963;28;20199;-87
2021/06/25 14:16:17;;;;;;;4.45;4.13;;;;;;;;;;5070942;28;20231;-87
2021/06/25 14:18:47;;;;;;;4.55;4.13;;;;;;;;;;5069203;28;20177;-87
2021/06/25 14:21:18;;;;;;;4.75;4.35;;;;;;;;;;5069089;28;20208;-88
2021/06/25 14:23:47;;;;;;;4.15;3.85;;;;;;;;;;5068043;28;20477;-88
2021/06/25 14:26:15;;;;;;;5.07;4.68;;;;;;;;;;5067914;28;20279;-87
2021/06/25 14:28:42;;;;;;;4.05;3.75;;;;;;;;;;5068345;28;20208;-87
2021/06/25 14:31:10;;;;;;;4.18;3.88;;;;;;;;;;5067971;28;20712;-87
2021/06/25 14:33:39;;;;;;;3.75;3.45;;;;;;;;;;5069137;28;20197;-87
2021/06/25 14:36:07;;;;;;;3.70;3.50;;;;;;;;;;5069151;28;20675;-88
2021/06/25 14:38:36;;;;;;;3.42;3.22;;;;;;;;;;5069959;28;20192;-87
2021/06/25 14:41:03;;;;;;;2.60;2.45;;;;;;;;;;5069677;28;20251;-88
2021/06/25 14:43:31;;;;;;;2.70;2.50;;;;;;;;;;5069890;28;20261;-87
2021/06/25 14:46:01;;;;;;;3.15;2.90;;;;;;;;;;5069835;28;20221;-87
2021/06/25 14:48:28;;;;;;;3.53;3.15;;;;;;;;;;5069716;28;20216;-87
2021/06/25 14:50:59;;;;;;;3.75;3.55;;;;;;;;;;5069809;28;20243;-87
2021/06/25 14:53:27;;;;;;;3.85;3.55;;;;;;;;;;5070033;28;20241;-87
2021/06/25 14:55:54;;;;;;;4.75;4.35;;;;;;;;;;5069521;28;20733;-87
2021/06/25 14:58:22;;;;;;;4.05;3.75;;;;;;;;;;5069661;28;20600;-87
2021/06/25 15:00:50;;;;;;;3.88;3.58;;;;;;;;;;5069493;28;20234;-87
2021/06/25 15:03:19;;;;;;;4.53;4.22;;;;;;;;;;5069039;28;20204;-87
2021/06/25 15:05:47;;;;;;;4.40;4.10;;;;;;;;;;5069772;28;20561;-87
2021/06/25 15:08:18;;;;;;;4.25;3.92;;;;;;;;;;5069456;28;20288;-87
2021/06/25 15:10:46;;;;;;;5.53;5.13;;;;;;;;;;5069566;28;20192;-86
2021/06/25 15:13:15;;;;;;;4.22;3.90;;;;;;;;;;5069550;28;20284;-87